This is the latest recevied weather packets stored in our database for station/object PY2VE-13. If no packets are shown the sender has not sent any weather packets the latest 1 day(s).
| Time | Temp. | Humidity | Pressure | Rain* | Wind** | Luminosity | Snow |
|---|---|---|---|---|---|---|---|
| 1778094237 | 47.78° C | 13% | 1016.3 hPa | - | - | - | - |
| 1778092437 | 36.11° C | 24% | 1018.9 hPa | - | - | - | - |
| 1778091537 | 33.33° C | 28% | 1019.5 hPa | - | - | - | - |
| 1778090637 | 32.78° C | 28% | 1019.9 hPa | - | - | - | - |
| 1778078036 | 31.11° C | 38% | 1023.9 hPa | - | - | - | - |
| 1778076236 | 30.56° C | 39% | 1024.5 hPa | - | - | - | - |
| 1778074436 | 30.56° C | 40% | 1025.1 hPa | - | - | - | - |
| 1778071736 | 29.44° C | 42% | 1025.6 hPa | - | - | - | - |
| 1778070836 | 28.33° C | 43% | 1025.8 hPa | - | - | - | - |
| 1778069936 | 28.89° C | 43% | 1025.6 hPa | - | - | - | - |
| 1778068136 | 27.78° C | 45% | 1025.6 hPa | - | - | - | - |
| 1778067236 | 26.67° C | 46% | 1025.7 hPa | - | - | - | - |
| 1778066336 | 26.11° C | 48% | 1025.6 hPa | - | - | - | - |
| 1778065436 | 25° C | 50% | 1025.6 hPa | - | - | - | - |
| 1778064536 | 24.44° C | 52% | 1025.5 hPa | - | - | - | - |
| 1778063636 | 24.44° C | 53% | 1025.5 hPa | - | - | - | - |
| 1778062736 | 24.44° C | 53% | 1025.3 hPa | - | - | - | - |
| 1778061836 | 24.44° C | 52% | 1025 hPa | - | - | - | - |
| 1778060936 | 23.33° C | 56% | 1025.4 hPa | - | - | - | - |
| 1778060036 | 23.89° C | 54% | 1025 hPa | - | - | - | - |
| 1778059136 | 25° C | 52% | 1024.5 hPa | - | - | - | - |
| 1778052835 | 25° C | 51% | 1023.7 hPa | - | - | - | - |
| 1778047435 | 25.56° C | 50% | 1023.5 hPa | - | - | - | - |
| 1778046535 | 25.56° C | 50% | 1023.7 hPa | - | - | - | - |
| 1778045635 | 25° C | 53% | 1024 hPa | - | - | - | - |
* Rain since midnight (hover to see other rain measurements)
** Current wind speed in m/s (hover to see current wind gust speed)